Aviation Digital Data Service (ADDS)

Output produced by METARs form (0151 UTC 02 September 2014)
found at http://aviationweather.gov/adds/metars/
 
KLEB 012344Z 0200/0224 VRB03KT P6SM SKC 
     FM020500 00000KT 3SM BR SCT003 
     FM020700 00000KT 1/4SM FG VV001 
     FM021330 20005KT P6SM BKN060